Time;durP1;ratioP1;P1;durP2;ratioP2;P2;SDS_P1;SDS_P2;PMS_P1;PMS_P2;Temp;Humidity;BMP_temperature;BMP_pressure;BME280_temperature;BME280_humidity;BME280_pressure;Samples;Min_cycle;Max_cycle;Signal;HPM_P1;HPM_P2
2023/09/21 00:01:16;;;;;;;11.05;2.20;;;;;;;;;;5032923;28;20037;-31
2023/09/21 00:03:41;;;;;;;10.05;2.25;;;;;;;;;;5033151;28;20029;-30
2023/09/21 00:06:07;;;;;;;6.25;2.35;;;;;;;;;;5033225;28;20423;-31
2023/09/21 00:08:33;;;;;;;4.85;2.17;;;;;;;;;;5032890;28;20104;-32
2023/09/21 00:10:58;;;;;;;5.68;2.17;;;;;;;;;;5032905;28;20017;-31
2023/09/21 00:13:27;;;;;;;4.97;2.15;;;;;;;;;;5032927;28;20059;-32
2023/09/21 00:15:56;;;;;;;4.53;2.20;;;;;;;;;;5032773;28;20022;-32
2023/09/21 00:18:22;;;;;;;7.60;2.30;;;;;;;;;;5032753;28;20026;-32
2023/09/21 00:20:53;;;;;;;5.60;2.03;;;;;;;;;;5036483;28;20021;-31
2023/09/21 00:23:20;;;;;;;7.65;2.40;;;;;;;;;;5036665;28;20077;-31
2023/09/21 00:25:46;;;;;;;7.07;2.17;;;;;;;;;;5036240;28;20021;-31
2023/09/21 00:28:13;;;;;;;4.93;2.03;;;;;;;;;;5036303;28;20021;-31
2023/09/21 00:30:39;;;;;;;6.80;2.35;;;;;;;;;;5036465;28;20372;-31
2023/09/21 00:33:07;;;;;;;4.28;2.10;;;;;;;;;;5034772;28;20024;-30
2023/09/21 00:35:32;;;;;;;7.85;2.22;;;;;;;;;;5036714;28;20017;-31
2023/09/21 00:37:58;;;;;;;5.25;2.45;;;;;;;;;;5036120;28;20032;-31
2023/09/21 00:40:23;;;;;;;7.60;2.27;;;;;;;;;;5036407;28;20033;-31
2023/09/21 00:42:51;;;;;;;8.80;2.30;;;;;;;;;;5036288;28;20314;-31
2023/09/21 00:45:18;;;;;;;7.43;2.25;;;;;;;;;;5036130;28;20029;-31
2023/09/21 00:47:49;;;;;;;4.65;2.38;;;;;;;;;;5036187;28;20456;-31
2023/09/21 00:50:15;;;;;;;5.05;2.10;;;;;;;;;;5036203;28;20025;-31
2023/09/21 00:52:42;;;;;;;5.15;2.13;;;;;;;;;;5036138;28;20024;-31
2023/09/21 00:55:09;;;;;;;8.30;2.20;;;;;;;;;;5035718;28;20071;-31
2023/09/21 00:57:36;;;;;;;4.82;2.33;;;;;;;;;;5036030;28;20037;-30
2023/09/21 01:00:04;;;;;;;4.72;2.45;;;;;;;;;;5035680;28;20024;-30
2023/09/21 01:02:30;;;;;;;5.60;2.10;;;;;;;;;;5035857;28;20051;-31
2023/09/21 01:04:56;;;;;;;3.80;1.95;;;;;;;;;;5035509;28;20013;-31
2023/09/21 01:07:22;;;;;;;4.88;2.05;;;;;;;;;;5035595;28;20083;-31
2023/09/21 01:09:49;;;;;;;6.22;2.30;;;;;;;;;;5035798;28;20017;-31
2023/09/21 01:12:14;;;;;;;6.35;2.10;;;;;;;;;;5035807;28;20013;-30
2023/09/21 01:14:39;;;;;;;6.65;2.15;;;;;;;;;;5035701;28;20471;-29
2023/09/21 01:17:05;;;;;;;5.93;2.07;;;;;;;;;;5035929;28;20391;-31
2023/09/21 01:19:30;;;;;;;7.83;2.17;;;;;;;;;;5035343;28;20788;-30
2023/09/21 01:21:59;;;;;;;6.25;2.20;;;;;;;;;;5035485;28;20244;-31
2023/09/21 01:24:25;;;;;;;7.13;2.20;;;;;;;;;;5035293;28;20416;-31
2023/09/21 01:26:50;;;;;;;6.45;2.30;;;;;;;;;;5035440;28;20124;-31
2023/09/21 01:29:16;;;;;;;5.28;2.00;;;;;;;;;;5035341;28;20017;-30
2023/09/21 01:31:43;;;;;;;6.68;2.30;;;;;;;;;;5034638;28;20017;-32
2023/09/21 01:34:09;;;;;;;6.18;2.65;;;;;;;;;;5035067;28;20041;-31
2023/09/21 01:36:34;;;;;;;5.78;2.20;;;;;;;;;;5035304;28;20018;-31
2023/09/21 01:38:59;;;;;;;6.93;2.30;;;;;;;;;;5034930;28;20036;-31
2023/09/21 01:41:25;;;;;;;4.67;2.07;;;;;;;;;;5035518;28;20025;-32
2023/09/21 01:43:50;;;;;;;4.13;2.00;;;;;;;;;;5035129;28;20357;-31
2023/09/21 01:46:21;;;;;;;5.72;2.03;;;;;;;;;;5034850;28;20029;-31
2023/09/21 01:48:46;;;;;;;7.65;2.20;;;;;;;;;;5034951;28;20113;-31
2023/09/21 01:51:12;;;;;;;10.47;2.30;;;;;;;;;;5034805;28;20093;-31
2023/09/21 01:53:37;;;;;;;7.85;2.10;;;;;;;;;;5035031;28;20256;-31
2023/09/21 01:56:02;;;;;;;3.83;1.95;;;;;;;;;;5034642;28;20029;-31
2023/09/21 01:58:28;;;;;;;6.15;2.00;;;;;;;;;;5034889;28;20025;-31
2023/09/21 02:00:53;;;;;;;8.77;2.30;;;;;;;;;;5034570;28;20392;-32
2023/09/21 02:03:19;;;;;;;5.77;2.40;;;;;;;;;;5034547;28;20104;-31
2023/09/21 02:05:48;;;;;;;4.88;2.13;;;;;;;;;;5034966;28;20294;-31
2023/09/21 02:08:13;;;;;;;4.78;2.40;;;;;;;;;;5033827;28;20022;-32
2023/09/21 02:10:40;;;;;;;6.68;2.10;;;;;;;;;;5034391;28;20014;-31
2023/09/21 02:13:06;;;;;;;5.93;2.33;;;;;;;;;;5034509;28;20022;-31
2023/09/21 02:15:32;;;;;;;7.50;2.08;;;;;;;;;;5034300;28;20021;-31
2023/09/21 02:17:57;;;;;;;5.45;2.35;;;;;;;;;;5034244;28;20018;-31
2023/09/21 02:20:23;;;;;;;5.70;2.43;;;;;;;;;;5034212;28;20025;-32
2023/09/21 02:22:49;;;;;;;6.90;2.10;;;;;;;;;;5034042;28;20266;-31
2023/09/21 02:25:15;;;;;;;5.78;2.30;;;;;;;;;;5034570;28;20017;-31
2023/09/21 02:27:41;;;;;;;6.63;2.10;;;;;;;;;;5034056;28;20020;-31
2023/09/21 02:30:09;;;;;;;3.53;2.13;;;;;;;;;;5034024;28;20021;-35
2023/09/21 02:32:34;;;;;;;3.80;1.75;;;;;;;;;;5034344;28;20084;-32
2023/09/21 02:35:03;;;;;;;4.55;2.10;;;;;;;;;;5033854;28;20052;-31
2023/09/21 02:37:28;;;;;;;4.68;1.98;;;;;;;;;;5033900;28;20562;-32
2023/09/21 02:39:53;;;;;;;10.98;2.13;;;;;;;;;;5034404;28;20017;-31
2023/09/21 02:42:18;;;;;;;4.80;1.90;;;;;;;;;;5033541;28;20515;-31
2023/09/21 02:44:45;;;;;;;4.17;1.80;;;;;;;;;;5034065;28;20024;-31
2023/09/21 02:47:11;;;;;;;3.13;1.80;;;;;;;;;;5034514;28;20052;-31
2023/09/21 02:49:36;;;;;;;4.03;1.93;;;;;;;;;;5033778;28;20052;-31
2023/09/21 02:52:01;;;;;;;5.10;2.00;;;;;;;;;;5033707;28;20715;-31
2023/09/21 02:54:28;;;;;;;6.55;2.13;;;;;;;;;;5033895;28;20029;-31
2023/09/21 02:56:53;;;;;;;4.23;2.00;;;;;;;;;;5034118;28;20083;-31
2023/09/21 02:59:19;;;;;;;4.78;2.10;;;;;;;;;;5033526;28;20068;-31
2023/09/21 03:01:45;;;;;;;4.23;2.20;;;;;;;;;;5033540;28;20076;-30
2023/09/21 03:04:12;;;;;;;6.97;2.47;;;;;;;;;;5033756;28;20330;-31
2023/09/21 03:06:37;;;;;;;4.25;2.20;;;;;;;;;;5034200;28;20017;-31
2023/09/21 03:09:03;;;;;;;6.10;2.10;;;;;;;;;;5033412;28;20067;-31
2023/09/21 03:11:28;;;;;;;4.07;2.00;;;;;;;;;;5033455;28;20033;-31
2023/09/21 03:13:53;;;;;;;4.43;2.10;;;;;;;;;;5033680;28;20030;-31
2023/09/21 03:16:19;;;;;;;6.50;2.10;;;;;;;;;;5033453;28;20478;-31
2023/09/21 03:18:47;;;;;;;5.90;2.20;;;;;;;;;;5033687;28;20028;-31
2023/09/21 03:21:15;;;;;;;4.35;2.20;;;;;;;;;;5033673;28;20021;-31
2023/09/21 03:23:40;;;;;;;5.70;2.47;;;;;;;;;;5033321;28;20061;-31
2023/09/21 03:26:10;;;;;;;4.60;2.30;;;;;;;;;;5034030;28;20052;-31
2023/09/21 03:28:37;;;;;;;6.22;2.40;;;;;;;;;;5033287;28;20379;-31
2023/09/21 03:31:02;;;;;;;5.88;2.00;;;;;;;;;;5033566;28;20022;-31
2023/09/21 03:33:27;;;;;;;8.13;2.00;;;;;;;;;;5033317;28;20452;-31
2023/09/21 03:35:53;;;;;;;7.65;2.33;;;;;;;;;;5033586;28;20387;-31
2023/09/21 03:38:19;;;;;;;4.68;2.30;;;;;;;;;;5033293;28;20027;-32
2023/09/21 03:40:44;;;;;;;7.22;2.05;;;;;;;;;;5033206;28;20092;-31
2023/09/21 03:43:13;;;;;;;8.73;2.17;;;;;;;;;;5033055;28;20060;-31
2023/09/21 03:45:38;;;;;;;6.63;2.40;;;;;;;;;;5033462;28;20480;-31
2023/09/21 03:48:06;;;;;;;6.32;2.33;;;;;;;;;;5033446;28;20013;-32
2023/09/21 03:50:32;;;;;;;5.68;2.10;;;;;;;;;;5033059;28;20028;-32
2023/09/21 03:52:59;;;;;;;4.07;2.10;;;;;;;;;;5033914;28;20026;-32
2023/09/21 03:55:24;;;;;;;5.43;1.95;;;;;;;;;;5037217;28;20018;-32
2023/09/21 03:57:50;;;;;;;10.73;2.10;;;;;;;;;;5036896;28;20028;-31
2023/09/21 04:03:00;;;;;;;9.38;2.45;;;;;;;;;;5037060;28;20029;-31
2023/09/21 04:05:26;;;;;;;7.55;2.30;;;;;;;;;;5036708;28;20099;-31
2023/09/21 04:07:51;;;;;;;8.38;2.20;;;;;;;;;;5037001;28;20017;-32
2023/09/21 04:10:16;;;;;;;7.68;2.35;;;;;;;;;;5036876;28;20075;-31
2023/09/21 04:12:42;;;;;;;3.63;1.90;;;;;;;;;;5036567;28;20013;-30
2023/09/21 04:15:08;;;;;;;7.40;2.00;;;;;;;;;;5036908;28;20282;-31
2023/09/21 04:17:35;;;;;;;9.45;2.20;;;;;;;;;;5036699;28;20021;-31
2023/09/21 04:20:00;;;;;;;5.00;2.17;;;;;;;;;;5036643;28;20419;-30
2023/09/21 04:22:25;;;;;;;4.70;2.40;;;;;;;;;;5036473;28;20040;-31
2023/09/21 04:24:51;;;;;;;3.35;2.05;;;;;;;;;;5036581;28;20259;-31
2023/09/21 04:27:17;;;;;;;6.18;2.00;;;;;;;;;;5035662;28;20024;-32
2023/09/21 04:29:43;;;;;;;3.15;1.88;;;;;;;;;;5036586;28;20100;-31
2023/09/21 04:32:09;;;;;;;6.78;2.20;;;;;;;;;;5036442;28;20041;-32
2023/09/21 04:34:34;;;;;;;5.75;2.20;;;;;;;;;;5036119;28;20227;-31
2023/09/21 04:37:00;;;;;;;7.25;2.40;;;;;;;;;;5036216;28;20052;-31
2023/09/21 04:39:25;;;;;;;5.10;2.33;;;;;;;;;;5036123;28;20040;-31
2023/09/21 04:41:50;;;;;;;4.03;2.07;;;;;;;;;;5036065;28;20013;-31
2023/09/21 04:44:15;;;;;;;5.47;2.23;;;;;;;;;;5036005;28;20022;-31
2023/09/21 04:46:42;;;;;;;5.93;2.65;;;;;;;;;;5036172;28;20029;-31
2023/09/21 04:49:07;;;;;;;6.63;2.55;;;;;;;;;;5035941;28;20017;-31
2023/09/21 04:51:33;;;;;;;4.73;2.30;;;;;;;;;;5035931;28;20013;-31
2023/09/21 04:53:58;;;;;;;7.13;2.33;;;;;;;;;;5035850;28;20781;-31
2023/09/21 04:56:23;;;;;;;8.13;2.40;;;;;;;;;;5035772;28;20032;-31
2023/09/21 04:58:50;;;;;;;4.43;1.93;;;;;;;;;;5036320;28;20025;-31
2023/09/21 05:01:16;;;;;;;5.47;2.58;;;;;;;;;;5036015;28;20029;-31
2023/09/21 05:03:41;;;;;;;5.95;2.70;;;;;;;;;;5035872;28;20429;-31
2023/09/21 05:06:06;;;;;;;5.13;2.40;;;;;;;;;;5034609;28;20411;-39
2023/09/21 05:08:36;;;;;;;6.72;2.60;;;;;;;;;;5035907;28;20029;-31
2023/09/21 05:11:02;;;;;;;6.60;2.20;;;;;;;;;;5035823;28;20459;-30
2023/09/21 05:13:27;;;;;;;7.45;2.50;;;;;;;;;;5035492;28;20101;-31
2023/09/21 05:15:53;;;;;;;4.90;2.37;;;;;;;;;;5035489;28;20104;-31
2023/09/21 05:18:18;;;;;;;6.13;2.60;;;;;;;;;;5035940;28;20278;-31
2023/09/21 05:20:45;;;;;;;5.70;2.58;;;;;;;;;;5035390;28;20798;-31
2023/09/21 05:23:10;;;;;;;7.97;2.50;;;;;;;;;;5035673;28;20022;-31
2023/09/21 05:25:35;;;;;;;8.80;2.93;;;;;;;;;;5035472;28;20357;-31
2023/09/21 05:28:01;;;;;;;6.60;2.40;;;;;;;;;;5035216;28;20018;-31
2023/09/21 05:30:28;;;;;;;3.90;2.50;;;;;;;;;;5035472;28;20275;-31
2023/09/21 05:32:56;;;;;;;5.05;2.58;;;;;;;;;;5033733;28;20472;-30
2023/09/21 05:35:23;;;;;;;6.35;2.70;;;;;;;;;;5035047;28;20055;-32
2023/09/21 05:37:48;;;;;;;5.05;2.45;;;;;;;;;;5035364;28;20532;-30
2023/09/21 05:40:14;;;;;;;4.97;2.30;;;;;;;;;;5035004;28;20059;-31
2023/09/21 05:42:41;;;;;;;7.63;2.67;;;;;;;;;;5035171;28;20029;-31
2023/09/21 05:45:07;;;;;;;7.15;2.80;;;;;;;;;;5035098;28;20079;-32
2023/09/21 05:47:32;;;;;;;7.05;2.83;;;;;;;;;;5035097;28;20369;-31
2023/09/21 05:49:57;;;;;;;5.43;2.70;;;;;;;;;;5035104;28;20371;-32
2023/09/21 05:52:24;;;;;;;6.20;2.80;;;;;;;;;;5034630;28;20017;-32
2023/09/21 05:54:49;;;;;;;5.35;2.72;;;;;;;;;;5033941;28;20300;-32
2023/09/21 05:57:15;;;;;;;5.27;2.63;;;;;;;;;;5035289;28;20041;-32
2023/09/21 05:59:41;;;;;;;7.00;2.80;;;;;;;;;;5034812;28;20100;-32
2023/09/21 06:02:12;;;;;;;3.55;2.38;;;;;;;;;;5034789;28;20045;-31
2023/09/21 06:04:39;;;;;;;6.15;2.83;;;;;;;;;;5034595;28;20021;-32
2023/09/21 06:07:04;;;;;;;4.65;2.88;;;;;;;;;;5034633;28;20549;-32
2023/09/21 06:09:29;;;;;;;4.60;2.57;;;;;;;;;;5034348;28;20045;-32
2023/09/21 06:11:54;;;;;;;6.33;2.60;;;;;;;;;;5034397;28;20341;-32
2023/09/21 06:14:20;;;;;;;8.45;2.90;;;;;;;;;;5034261;28;20256;-32
2023/09/21 06:16:45;;;;;;;6.88;2.92;;;;;;;;;;5034250;28;20021;-31
2023/09/21 06:19:11;;;;;;;4.95;3.03;;;;;;;;;;5034174;28;20032;-32
2023/09/21 06:21:40;;;;;;;7.45;3.40;;;;;;;;;;5034343;28;20083;-31
2023/09/21 06:24:05;;;;;;;11.00;3.30;;;;;;;;;;5034415;28;20033;-31
2023/09/21 06:26:31;;;;;;;5.43;2.60;;;;;;;;;;5034818;28;20053;-31
2023/09/21 06:28:56;;;;;;;5.25;1.60;;;;;;;;;;5034301;28;20461;-31
2023/09/21 06:31:22;;;;;;;5.63;1.52;;;;;;;;;;5034118;28;20128;-31
2023/09/21 06:33:48;;;;;;;2.40;1.20;;;;;;;;;;5033841;28;20073;-31
2023/09/21 06:36:20;;;;;;;2.67;1.30;;;;;;;;;;5034189;28;20021;-32
2023/09/21 06:38:46;;;;;;;2.47;1.10;;;;;;;;;;5034162;28;20017;-32
2023/09/21 06:41:12;;;;;;;3.17;1.35;;;;;;;;;;5033780;28;20032;-30
2023/09/21 06:43:38;;;;;;;2.75;0.98;;;;;;;;;;5033759;28;20021;-31
2023/09/21 06:46:04;;;;;;;1.92;1.20;;;;;;;;;;5034009;28;20380;-30
2023/09/21 06:48:30;;;;;;;2.70;1.10;;;;;;;;;;5033717;28;20021;-31
2023/09/21 06:50:55;;;;;;;3.25;1.30;;;;;;;;;;5034179;28;20022;-31
2023/09/21 06:53:24;;;;;;;5.27;1.17;;;;;;;;;;5033708;28;20456;-31
2023/09/21 06:55:49;;;;;;;5.13;1.50;;;;;;;;;;5033827;28;20260;-31
2023/09/21 06:58:14;;;;;;;1.80;0.95;;;;;;;;;;5033530;28;20388;-31
2023/09/21 07:00:40;;;;;;;3.88;1.50;;;;;;;;;;5033381;28;20030;-32
2023/09/21 07:03:05;;;;;;;3.50;1.20;;;;;;;;;;5033537;28;20025;-30
2023/09/21 07:05:30;;;;;;;5.97;1.33;;;;;;;;;;5033466;28;20276;-30
2023/09/21 07:07:55;;;;;;;3.77;1.07;;;;;;;;;;5033445;28;20334;-30
2023/09/21 07:10:20;;;;;;;3.80;1.20;;;;;;;;;;5033454;28;20295;-30
2023/09/21 07:12:46;;;;;;;3.78;0.93;;;;;;;;;;5033369;28;20023;-31
2023/09/21 07:15:11;;;;;;;2.83;1.20;;;;;;;;;;5033453;28;20017;-31
2023/09/21 07:17:36;;;;;;;4.27;1.33;;;;;;;;;;5033403;28;20026;-30
2023/09/21 07:20:04;;;;;;;5.68;1.30;;;;;;;;;;5033247;28;20287;-31
2023/09/21 07:22:29;;;;;;;7.07;1.50;;;;;;;;;;5032063;28;20025;-31
2023/09/21 07:24:54;;;;;;;2.50;1.40;;;;;;;;;;5033155;28;20021;-31
2023/09/21 07:27:22;;;;;;;2.83;1.30;;;;;;;;;;5032078;28;20314;-30
2023/09/21 07:29:47;;;;;;;2.72;1.20;;;;;;;;;;5037200;28;20376;-31
2023/09/21 07:32:12;;;;;;;2.47;1.20;;;;;;;;;;5037858;28;20104;-30
2023/09/21 07:34:37;;;;;;;3.95;1.30;;;;;;;;;;5037126;28;20108;-31
2023/09/21 07:37:03;;;;;;;4.45;1.55;;;;;;;;;;5038238;28;20032;-31
2023/09/21 07:39:28;;;;;;;12.23;1.63;;;;;;;;;;5037763;28;20380;-31
2023/09/21 07:41:53;;;;;;;4.30;1.60;;;;;;;;;;5037101;28;20413;-31
2023/09/21 07:44:19;;;;;;;3.53;1.58;;;;;;;;;;5037101;28;20259;-31
2023/09/21 07:46:44;;;;;;;2.97;1.30;;;;;;;;;;5037026;28;20068;-31
2023/09/21 07:49:09;;;;;;;3.42;1.35;;;;;;;;;;5037003;28;20021;-30
2023/09/21 07:51:34;;;;;;;3.75;1.60;;;;;;;;;;5036939;28;20026;-31
2023/09/21 07:54:02;;;;;;;3.40;1.27;;;;;;;;;;5036880;28;20021;-31
2023/09/21 07:56:29;;;;;;;3.22;1.33;;;;;;;;;;5036942;28;20252;-31
2023/09/21 07:58:55;;;;;;;4.53;1.33;;;;;;;;;;5036785;28;20021;-30
2023/09/21 08:01:20;;;;;;;6.70;1.60;;;;;;;;;;5037377;28;20030;-30
2023/09/21 08:03:46;;;;;;;4.97;1.40;;;;;;;;;;5036719;28;20085;-30
2023/09/21 08:06:11;;;;;;;4.95;1.70;;;;;;;;;;5036641;28;20013;-31
2023/09/21 08:08:37;;;;;;;3.00;1.30;;;;;;;;;;5036616;28;20419;-31
2023/09/21 08:11:02;;;;;;;5.17;1.50;;;;;;;;;;5036756;28;20460;-31
2023/09/21 08:13:29;;;;;;;5.20;1.48;;;;;;;;;;5037033;28;20057;-31
2023/09/21 08:15:54;;;;;;;3.45;1.20;;;;;;;;;;5037481;28;20067;-29
2023/09/21 08:18:19;;;;;;;2.90;1.30;;;;;;;;;;5037166;28;20025;-31
2023/09/21 08:20:44;;;;;;;6.75;1.73;;;;;;;;;;5036553;28;20252;-31
2023/09/21 08:23:10;;;;;;;5.50;1.67;;;;;;;;;;5035273;28;20028;-31
2023/09/21 08:25:36;;;;;;;2.85;1.42;;;;;;;;;;5036509;28;20287;-31
2023/09/21 08:28:03;;;;;;;4.03;1.50;;;;;;;;;;5036486;28;20014;-31
2023/09/21 08:30:29;;;;;;;4.18;1.50;;;;;;;;;;5036359;28;20036;-36
2023/09/21 08:32:54;;;;;;;3.85;1.38;;;;;;;;;;5036156;28;20021;-30
2023/09/21 08:35:19;;;;;;;5.50;1.53;;;;;;;;;;5035093;28;20025;-30
2023/09/21 08:37:44;;;;;;;1.65;1.25;;;;;;;;;;5036379;28;20753;-31
2023/09/21 08:40:10;;;;;;;2.80;1.40;;;;;;;;;;5035434;28;20017;-31
2023/09/21 08:42:36;;;;;;;4.72;1.63;;;;;;;;;;5035946;28;20068;-30
2023/09/21 08:45:03;;;;;;;5.22;1.73;;;;;;;;;;5036182;28;20039;-31
2023/09/21 08:47:28;;;;;;;6.03;1.58;;;;;;;;;;5035999;28;20072;-31
2023/09/21 08:49:53;;;;;;;5.18;1.60;;;;;;;;;;5035831;28;20021;-30
2023/09/21 08:52:20;;;;;;;4.47;1.58;;;;;;;;;;5035909;28;20049;-30
2023/09/21 08:54:46;;;;;;;6.38;3.75;;;;;;;;;;5036452;28;20509;-30
2023/09/21 08:57:12;;;;;;;3.92;1.40;;;;;;;;;;5036071;28;20026;-31
2023/09/21 08:59:40;;;;;;;3.08;1.50;;;;;;;;;;5036313;28;20028;-30
2023/09/21 09:02:08;;;;;;;2.90;1.40;;;;;;;;;;5035619;28;20013;-30
2023/09/21 09:04:33;;;;;;;5.45;1.50;;;;;;;;;;5035572;28;20021;-30
2023/09/21 09:06:58;;;;;;;4.03;1.30;;;;;;;;;;5035776;28;20032;-30
2023/09/21 09:09:23;;;;;;;3.58;1.58;;;;;;;;;;5036125;28;20022;-31
2023/09/21 09:11:50;;;;;;;3.40;1.30;;;;;;;;;;5035595;28;20017;-31
2023/09/21 09:14:22;;;;;;;2.10;1.02;;;;;;;;;;5035726;28;20013;-31
2023/09/21 09:16:49;;;;;;;2.80;1.33;;;;;;;;;;5035463;28;20018;-31
2023/09/21 09:19:15;;;;;;;2.38;1.20;;;;;;;;;;5035297;28;20017;-31
2023/09/21 09:21:44;;;;;;;4.20;1.27;;;;;;;;;;5035073;28;20025;-31
2023/09/21 09:24:11;;;;;;;3.38;1.48;;;;;;;;;;5034463;28;20083;-31
2023/09/21 09:26:37;;;;;;;5.32;1.50;;;;;;;;;;5034940;28;20460;-31
2023/09/21 09:29:06;;;;;;;2.97;1.25;;;;;;;;;;5035463;28;20025;-31
2023/09/21 09:31:33;;;;;;;2.90;1.40;;;;;;;;;;5033950;28;20032;-32
2023/09/21 09:34:01;;;;;;;5.05;1.40;;;;;;;;;;5034078;28;20528;-32
2023/09/21 09:36:27;;;;;;;7.43;1.38;;;;;;;;;;5033829;28;20033;-31
2023/09/21 09:38:52;;;;;;;2.60;1.25;;;;;;;;;;5035336;28;20368;-32
2023/09/21 09:41:18;;;;;;;3.00;1.23;;;;;;;;;;5034333;28;20227;-30
2023/09/21 09:43:46;;;;;;;4.28;1.23;;;;;;;;;;5034606;28;20021;-31
2023/09/21 09:46:12;;;;;;;7.35;1.63;;;;;;;;;;5033724;28;20029;-36
2023/09/21 09:48:39;;;;;;;2.67;1.48;;;;;;;;;;5034537;28;20084;-31
2023/09/21 09:51:06;;;;;;;5.20;1.38;;;;;;;;;;5033970;28;20036;-31
2023/09/21 09:53:34;;;;;;;3.00;1.05;;;;;;;;;;5034146;28;20017;-31
2023/09/21 09:56:00;;;;;;;3.95;1.70;;;;;;;;;;5034071;28;20025;-31
2023/09/21 09:58:26;;;;;;;5.85;1.60;;;;;;;;;;5033988;28;20018;-30
2023/09/21 10:00:52;;;;;;;4.43;1.35;;;;;;;;;;5034043;28;20070;-30
2023/09/21 10:03:17;;;;;;;6.30;1.67;;;;;;;;;;5033852;28;20022;-30
2023/09/21 10:05:43;;;;;;;2.85;1.30;;;;;;;;;;5034391;28;20032;-31
2023/09/21 10:08:10;;;;;;;3.40;1.27;;;;;;;;;;5034710;28;20415;-30
2023/09/21 10:10:54;;;;;;;2.80;1.40;;;;;;;;;;5034619;28;20024;-31
2023/09/21 10:13:25;;;;;;;3.92;1.80;;;;;;;;;;5034532;28;20479;-29
2023/09/21 10:16:02;;;;;;;3.83;1.58;;;;;;;;;;5034260;28;20032;-31
2023/09/21 10:18:27;;;;;;;4.18;1.30;;;;;;;;;;5034166;28;20032;-30
2023/09/21 10:20:54;;;;;;;4.57;1.38;;;;;;;;;;5034746;28;20022;-31
2023/09/21 10:23:19;;;;;;;3.47;1.30;;;;;;;;;;5034391;28;20353;-30
2023/09/21 10:25:45;;;;;;;4.68;1.88;;;;;;;;;;5034067;28;20028;-31
2023/09/21 10:28:29;;;;;;;2.05;1.30;;;;;;;;;;5034592;28;20415;-31
2023/09/21 10:30:54;;;;;;;4.35;1.30;;;;;;;;;;5034543;28;20049;-31
2023/09/21 10:33:20;;;;;;;4.65;1.40;;;;;;;;;;5034073;28;20076;-30
2023/09/21 10:35:45;;;;;;;3.63;1.55;;;;;;;;;;5031601;28;20554;-31
2023/09/21 10:38:11;;;;;;;5.75;1.50;;;;;;;;;;5032453;28;20045;-30
2023/09/21 10:40:37;;;;;;;6.15;1.40;;;;;;;;;;5034243;28;20018;-31
2023/09/21 10:43:22;;;;;;;1.63;0.90;;;;;;;;;;5033220;28;20546;-31
2023/09/21 10:45:55;;;;;;;7.65;1.38;;;;;;;;;;5032808;28;20036;-31
2023/09/21 10:48:21;;;;;;;3.08;1.20;;;;;;;;;;5032548;28;20032;-31
2023/09/21 10:50:47;;;;;;;3.67;1.00;;;;;;;;;;5033693;28;20014;-30
2023/09/21 10:53:15;;;;;;;2.95;1.02;;;;;;;;;;5034284;28;20256;-31
2023/09/21 10:55:41;;;;;;;2.33;1.10;;;;;;;;;;5034340;28;20022;-31
2023/09/21 10:58:06;;;;;;;3.58;1.13;;;;;;;;;;5033939;28;20384;-31
2023/09/21 11:00:31;;;;;;;3.00;1.20;;;;;;;;;;5034194;28;20022;-31
2023/09/21 11:02:57;;;;;;;3.28;1.17;;;;;;;;;;5032887;28;20279;-31
2023/09/21 11:05:23;;;;;;;3.55;1.55;;;;;;;;;;5034037;28;20021;-31
2023/09/21 11:07:50;;;;;;;3.67;1.30;;;;;;;;;;5034030;28;20029;-31
2023/09/21 11:10:16;;;;;;;4.80;1.23;;;;;;;;;;5033308;28;20017;-31
2023/09/21 11:12:41;;;;;;;4.60;1.17;;;;;;;;;;5033571;28;20518;-31
2023/09/21 11:15:12;;;;;;;3.60;1.58;;;;;;;;;;5033233;28;20022;-31
2023/09/21 11:17:39;;;;;;;1.52;0.90;;;;;;;;;;5033329;28;20067;-30
2023/09/21 11:20:05;;;;;;;2.90;1.27;;;;;;;;;;5033205;28;20023;-30
2023/09/21 11:22:33;;;;;;;2.97;1.00;;;;;;;;;;5033568;28;20028;-30
2023/09/21 11:24:58;;;;;;;2.88;1.13;;;;;;;;;;5033238;28;20024;-31
2023/09/21 11:27:26;;;;;;;4.40;1.10;;;;;;;;;;5033775;28;20096;-31
2023/09/21 11:29:53;;;;;;;4.85;1.50;;;;;;;;;;5034003;28;20041;-31
2023/09/21 11:32:19;;;;;;;7.70;1.33;;;;;;;;;;5033352;28;20100;-31
2023/09/21 11:34:44;;;;;;;5.13;1.38;;;;;;;;;;5033268;28;20069;-30
2023/09/21 11:37:10;;;;;;;4.32;1.50;;;;;;;;;;5033755;28;20029;-30
2023/09/21 11:39:36;;;;;;;5.63;1.50;;;;;;;;;;5033704;28;20028;-30
2023/09/21 11:42:02;;;;;;;3.95;1.40;;;;;;;;;;5032969;28;20071;-30
2023/09/21 11:44:28;;;;;;;2.50;1.40;;;;;;;;;;5033341;28;20428;-30
2023/09/21 11:46:54;;;;;;;3.53;1.10;;;;;;;;;;5033371;28;20460;-30
2023/09/21 11:49:19;;;;;;;3.88;1.20;;;;;;;;;;5033413;28;20040;-30
2023/09/21 11:51:44;;;;;;;3.17;1.40;;;;;;;;;;5033122;28;20018;-30
2023/09/21 11:54:11;;;;;;;5.75;1.30;;;;;;;;;;5033318;28;20291;-30
2023/09/21 11:56:37;;;;;;;2.85;1.40;;;;;;;;;;5033292;28;20104;-31
2023/09/21 11:59:06;;;;;;;3.70;1.33;;;;;;;;;;5033269;28;20060;-32
2023/09/21 12:01:31;;;;;;;2.53;1.33;;;;;;;;;;5033243;28;20025;-31
2023/09/21 12:03:57;;;;;;;1.95;1.00;;;;;;;;;;5032916;28;20383;-30
2023/09/21 12:06:27;;;;;;;1.80;1.10;;;;;;;;;;5032877;28;20021;-31
2023/09/21 12:08:52;;;;;;;4.18;1.42;;;;;;;;;;5033181;28;20071;-31
2023/09/21 12:11:17;;;;;;;1.83;1.10;;;;;;;;;;5032966;28;20372;-32
2023/09/21 12:13:42;;;;;;;3.23;1.50;;;;;;;;;;5032833;28;20527;-31
2023/09/21 12:16:08;;;;;;;1.37;1.10;;;;;;;;;;5036420;28;20257;-31
2023/09/21 12:18:33;;;;;;;2.33;1.30;;;;;;;;;;5036701;28;20252;-31
2023/09/21 12:21:00;;;;;;;2.83;1.30;;;;;;;;;;5036457;28;20287;-32
2023/09/21 12:23:25;;;;;;;2.20;1.40;;;;;;;;;;5036347;28;20013;-32
2023/09/21 12:25:51;;;;;;;3.88;1.27;;;;;;;;;;5036686;28;20032;-32
2023/09/21 12:28:17;;;;;;;2.20;1.08;;;;;;;;;;5036946;28;20460;-32
2023/09/21 12:30:43;;;;;;;3.13;1.27;;;;;;;;;;5036512;28;20068;-32
2023/09/21 12:33:09;;;;;;;3.05;1.60;;;;;;;;;;5036358;28;20017;-31
2023/09/21 12:35:35;;;;;;;4.30;1.30;;;;;;;;;;5037043;28;20523;-32
2023/09/21 12:38:00;;;;;;;2.25;1.20;;;;;;;;;;5035018;28;20051;-30
2023/09/21 12:40:25;;;;;;;2.22;1.20;;;;;;;;;;5036270;28;20023;-32
2023/09/21 12:42:52;;;;;;;2.10;1.33;;;;;;;;;;5036743;28;20373;-32
2023/09/21 12:45:17;;;;;;;7.07;1.50;;;;;;;;;;5034808;28;20029;-32
2023/09/21 12:47:43;;;;;;;2.25;1.50;;;;;;;;;;5036602;28;20017;-32
2023/09/21 12:50:09;;;;;;;2.95;1.40;;;;;;;;;;5036332;28;20048;-32
2023/09/21 12:52:35;;;;;;;2.72;1.48;;;;;;;;;;5036451;28;20018;-31
2023/09/21 12:55:00;;;;;;;3.80;1.67;;;;;;;;;;5036193;28;20096;-31
2023/09/21 12:57:27;;;;;;;2.47;1.40;;;;;;;;;;5035865;28;20522;-31
2023/09/21 12:59:53;;;;;;;7.55;1.48;;;;;;;;;;5036112;28;20018;-31
2023/09/21 13:02:19;;;;;;;3.13;1.50;;;;;;;;;;5036073;28;20349;-31
2023/09/21 13:04:45;;;;;;;2.47;1.40;;;;;;;;;;5035715;28;20021;-31
2023/09/21 13:07:10;;;;;;;2.22;1.30;;;;;;;;;;5035776;28;20033;-32
2023/09/21 13:09:36;;;;;;;2.40;1.50;;;;;;;;;;5035262;28;20444;-32
2023/09/21 13:12:01;;;;;;;2.75;1.45;;;;;;;;;;5035983;28;20014;-32
2023/09/21 13:14:29;;;;;;;3.97;1.42;;;;;;;;;;5035950;28;20021;-32
2023/09/21 13:16:56;;;;;;;1.95;1.38;;;;;;;;;;5035531;28;20072;-32
2023/09/21 13:19:22;;;;;;;3.33;1.58;;;;;;;;;;5035696;28;20111;-32
2023/09/21 13:21:48;;;;;;;3.35;1.80;;;;;;;;;;5035938;28;20017;-32
2023/09/21 13:24:13;;;;;;;5.85;1.70;;;;;;;;;;5035691;28;20487;-31
2023/09/21 13:26:38;;;;;;;4.77;1.87;;;;;;;;;;5034529;28;20388;-32
2023/09/21 13:29:04;;;;;;;3.90;2.00;;;;;;;;;;5035436;28;20259;-31
2023/09/21 13:31:29;;;;;;;2.95;1.73;;;;;;;;;;5035527;28;20025;-31
2023/09/21 13:33:55;;;;;;;2.73;1.40;;;;;;;;;;5034993;28;20049;-31
2023/09/21 13:36:20;;;;;;;5.20;1.70;;;;;;;;;;5035311;28;20268;-30
2023/09/21 13:38:48;;;;;;;3.17;1.60;;;;;;;;;;5034927;28;20026;-30
2023/09/21 13:41:14;;;;;;;3.78;1.60;;;;;;;;;;5034268;28;20278;-30
2023/09/21 13:43:39;;;;;;;3.03;1.50;;;;;;;;;;5032299;28;20112;-31
2023/09/21 13:46:09;;;;;;;3.07;1.67;;;;;;;;;;5035121;28;20440;-31
2023/09/21 13:48:35;;;;;;;3.47;1.52;;;;;;;;;;5033616;28;20280;-31
2023/09/21 13:51:00;;;;;;;3.85;1.83;;;;;;;;;;5034794;28;20025;-31
2023/09/21 13:53:25;;;;;;;3.50;1.70;;;;;;;;;;5035040;28;20471;-31
2023/09/21 13:55:52;;;;;;;2.45;1.63;;;;;;;;;;5035046;28;20284;-31
2023/09/21 13:58:17;;;;;;;3.80;1.80;;;;;;;;;;5034384;28;20464;-31
2023/09/21 14:00:43;;;;;;;4.40;1.77;;;;;;;;;;5034242;28;20024;-31
2023/09/21 14:03:08;;;;;;;2.55;1.58;;;;;;;;;;5034786;28;20521;-31
2023/09/21 14:05:33;;;;;;;3.07;1.90;;;;;;;;;;5035271;28;20021;-30
2023/09/21 14:07:58;;;;;;;2.55;1.58;;;;;;;;;;5034365;28;20267;-31
2023/09/21 14:10:24;;;;;;;3.17;1.70;;;;;;;;;;5034786;28;20027;-31
2023/09/21 14:12:53;;;;;;;2.78;1.55;;;;;;;;;;5034373;28;20715;-31
2023/09/21 14:15:20;;;;;;;4.70;1.90;;;;;;;;;;5035416;28;20029;-31
2023/09/21 14:17:46;;;;;;;2.35;1.70;;;;;;;;;;5034602;28;20526;-31
2023/09/21 14:20:13;;;;;;;3.92;1.67;;;;;;;;;;5034317;28;20029;-31
2023/09/21 14:22:38;;;;;;;3.70;2.00;;;;;;;;;;5032987;28;20044;-31
2023/09/21 14:25:04;;;;;;;4.07;1.95;;;;;;;;;;5034711;28;20021;-31
2023/09/21 14:27:30;;;;;;;3.15;1.60;;;;;;;;;;5034401;28;20013;-30
2023/09/21 14:29:55;;;;;;;3.28;1.70;;;;;;;;;;5034674;28;20017;-31
2023/09/21 14:32:20;;;;;;;3.23;1.70;;;;;;;;;;5032660;28;20017;-31
2023/09/21 14:34:45;;;;;;;3.73;1.97;;;;;;;;;;5034005;28;20342;-31
2023/09/21 14:37:11;;;;;;;3.83;1.75;;;;;;;;;;5033851;28;20406;-30
2023/09/21 14:39:36;;;;;;;2.53;1.70;;;;;;;;;;5034160;28;20017;-31